createdAt,value
2019-05-28T00:00:28.021Z,9.50
2019-05-28T00:03:35.063Z,9.80
2019-05-28T00:06:42.128Z,10.57
2019-05-28T00:09:49.209Z,9.80
2019-05-28T00:12:56.329Z,9.70
2019-05-28T00:16:03.617Z,9.33
2019-05-28T00:19:10.693Z,10.13
2019-05-28T00:22:17.708Z,9.70
2019-05-28T00:25:29.004Z,10.23
2019-05-28T00:28:33.516Z,9.93
2019-05-28T00:31:40.501Z,11.63
2019-05-28T00:34:47.546Z,10.00
2019-05-28T00:37:54.486Z,12.43
2019-05-28T00:41:01.578Z,11.03
2019-05-28T00:44:08.632Z,12.77
2019-05-28T00:47:15.670Z,12.17
2019-05-28T00:50:22.829Z,11.67
2019-05-28T00:53:29.964Z,11.53
2019-05-28T00:56:37.315Z,12.97
2019-05-28T00:59:45.658Z,12.90
2019-05-28T01:02:52.754Z,12.80
2019-05-28T01:05:59.870Z,12.87
2019-05-28T01:09:08.199Z,13.30
2019-05-28T01:12:15.232Z,18.13
2019-05-28T01:15:22.633Z,13.57
2019-05-28T01:18:29.613Z,14.87
2019-05-28T01:21:37.080Z,17.07
2019-05-28T01:24:44.136Z,14.03
2019-05-28T01:27:51.203Z,13.50
2019-05-28T01:31:00.884Z,12.93
2019-05-28T01:34:06.897Z,15.23
2019-05-28T01:37:13.993Z,13.40
2019-05-28T01:40:23.148Z,13.20
2019-05-28T01:43:29.949Z,14.83
2019-05-28T01:47:28.299Z,12.63
2019-05-28T01:50:35.307Z,15.77
2019-05-28T01:53:42.321Z,13.20
2019-05-28T01:56:49.310Z,11.60
2019-05-28T01:59:56.277Z,13.60
2019-05-28T02:03:03.316Z,12.00
2019-05-28T02:06:10.298Z,15.47
2019-05-28T02:09:17.318Z,14.00
2019-05-28T02:12:24.384Z,13.77
2019-05-28T02:15:31.416Z,16.77
2019-05-28T02:18:38.446Z,14.77
2019-05-28T02:21:45.468Z,12.40
2019-05-28T02:24:52.484Z,14.07
2019-05-28T02:27:59.497Z,14.13
2019-05-28T02:31:06.482Z,14.70
2019-05-28T02:34:13.472Z,13.63
2019-05-28T02:37:20.443Z,13.53
2019-05-28T02:40:27.773Z,16.67
2019-05-28T02:43:34.779Z,13.97
2019-05-28T02:46:41.782Z,13.60
2019-05-28T02:49:48.739Z,15.00
2019-05-28T02:52:56.125Z,13.83
2019-05-28T02:56:03.139Z,13.90
2019-05-28T02:59:11.925Z,14.53
2019-05-28T03:02:21.978Z,12.33
2019-05-28T03:05:30.161Z,15.33
2019-05-28T03:08:37.309Z,12.47
2019-05-28T03:11:44.352Z,14.47
2019-05-28T03:14:51.374Z,12.43
2019-05-28T03:17:58.598Z,14.27
2019-05-28T03:21:06.409Z,13.37
2019-05-28T03:24:14.722Z,15.73
2019-05-28T03:27:21.825Z,12.53
2019-05-28T03:30:28.869Z,13.13
2019-05-28T03:33:35.852Z,11.43
2019-05-28T03:36:44.362Z,14.23
2019-05-28T03:39:54.029Z,10.97
2019-05-28T03:43:01.060Z,11.90
2019-05-28T03:46:08.082Z,12.40
2019-05-28T03:49:15.149Z,15.20
2019-05-28T03:52:22.191Z,11.83
2019-05-28T03:55:29.168Z,12.67
2019-05-28T03:58:36.174Z,12.47
2019-05-28T04:01:43.208Z,15.30
2019-05-28T04:04:50.229Z,11.43
2019-05-28T04:07:57.249Z,11.13
2019-05-28T04:11:04.253Z,14.13
2019-05-28T04:14:11.281Z,9.93
2019-05-28T04:17:18.274Z,14.73
2019-05-28T04:20:25.319Z,13.30
2019-05-28T04:23:32.365Z,14.63
2019-05-28T04:26:39.341Z,15.27
2019-05-28T04:29:46.348Z,14.30
2019-05-28T04:32:53.323Z,14.63
2019-05-28T04:36:00.326Z,14.80
2019-05-28T04:39:08.625Z,15.13
2019-05-28T04:42:15.622Z,15.03
2019-05-28T04:45:22.618Z,14.57
2019-05-28T04:48:29.635Z,15.43
2019-05-28T04:51:36.659Z,15.17
2019-05-28T04:54:43.656Z,13.03
2019-05-28T04:57:50.655Z,16.10
2019-05-28T05:00:57.700Z,15.00
2019-05-28T05:04:04.718Z,11.53
2019-05-28T05:07:11.751Z,12.93
2019-05-28T05:10:19.580Z,16.40
2019-05-28T05:13:26.628Z,13.23
2019-05-28T05:16:33.661Z,13.00
2019-05-28T05:19:40.687Z,12.37
2019-05-28T05:22:47.680Z,11.77
2019-05-28T05:25:54.743Z,12.27
2019-05-28T05:29:01.780Z,13.50
2019-05-28T05:32:08.766Z,13.23
2019-05-28T05:35:15.989Z,13.00
2019-05-28T05:38:22.982Z,12.73
2019-05-28T05:41:30.068Z,12.57
2019-05-28T05:44:37.059Z,13.37
2019-05-28T05:47:44.036Z,13.50
2019-05-28T05:50:51.072Z,14.20
2019-05-28T05:53:58.024Z,13.17
2019-05-28T05:57:05.011Z,14.03
2019-05-28T06:00:12.233Z,13.43
2019-05-28T06:03:36.672Z,13.37
2019-05-28T06:06:27.793Z,14.93
2019-05-28T06:09:34.767Z,14.43
2019-05-28T06:12:41.764Z,12.03
2019-05-28T06:15:48.791Z,13.37
2019-05-28T06:18:55.811Z,12.53
2019-05-28T06:22:02.857Z,12.93
2019-05-28T06:25:10.192Z,11.97
2019-05-28T06:28:17.147Z,11.97
2019-05-28T06:31:24.231Z,12.67
2019-05-28T06:34:31.197Z,12.93
2019-05-28T06:37:38.188Z,13.20
2019-05-28T06:40:45.161Z,12.57
2019-05-28T06:43:52.120Z,13.27
2019-05-28T06:46:59.141Z,13.37
2019-05-28T06:50:07.426Z,12.07
2019-05-28T06:53:14.469Z,13.93
2019-05-28T06:56:21.485Z,13.17
2019-05-28T06:59:28.476Z,12.43
2019-05-28T07:02:35.461Z,13.87
2019-05-28T07:05:42.465Z,11.73
2019-05-28T07:08:49.432Z,11.33
2019-05-28T07:11:56.430Z,12.47
2019-05-28T07:15:03.453Z,10.67
2019-05-28T07:18:10.426Z,10.93
2019-05-28T07:21:17.438Z,10.67
2019-05-28T07:24:24.499Z,9.53
2019-05-28T07:27:31.506Z,8.80
2019-05-28T07:30:38.488Z,9.10
2019-05-28T07:33:45.583Z,9.27
2019-05-28T07:36:52.582Z,10.07
2019-05-28T07:39:59.552Z,9.77
2019-05-28T07:43:06.586Z,9.40
2019-05-28T07:46:13.572Z,8.67
2019-05-28T07:49:20.625Z,9.37
2019-05-28T07:52:27.663Z,8.50
2019-05-28T07:55:34.628Z,7.97
2019-05-28T07:58:41.636Z,8.67
2019-05-28T08:01:48.658Z,8.77
2019-05-28T08:04:55.779Z,8.03
2019-05-28T08:08:02.813Z,33.53
2019-05-28T08:11:09.799Z,7.83
2019-05-28T08:14:16.855Z,7.40
2019-05-28T08:17:23.876Z,8.17
2019-05-28T08:20:30.860Z,7.33
2019-05-28T08:23:37.919Z,7.03
2019-05-28T08:26:44.868Z,7.60
2019-05-28T08:29:51.897Z,7.20
2019-05-28T08:32:58.912Z,7.30
2019-05-28T08:36:06.014Z,7.83
2019-05-28T08:39:13.025Z,6.77
2019-05-28T08:42:20.979Z,7.13
2019-05-28T08:45:28.107Z,6.67
2019-05-28T08:48:35.096Z,6.90
2019-05-28T08:51:42.033Z,6.50
2019-05-28T08:54:51.132Z,7.00
2019-05-28T08:58:01.232Z,6.73
2019-05-28T09:01:06.243Z,7.10
2019-05-28T09:04:13.247Z,6.90
2019-05-28T09:07:20.223Z,7.00
2019-05-28T09:10:27.223Z,5.33
2019-05-28T09:13:34.278Z,4.93
2019-05-28T09:16:41.216Z,4.67
2019-05-28T09:19:48.287Z,5.10
2019-05-28T09:22:55.294Z,4.77
2019-05-28T09:26:02.297Z,5.63
2019-05-28T09:29:09.296Z,5.00
2019-05-28T09:32:16.281Z,4.80
2019-05-28T09:35:23.437Z,4.80
2019-05-28T09:38:30.383Z,5.27
2019-05-28T09:41:37.432Z,4.90
2019-05-28T09:44:44.492Z,4.73
2019-05-28T09:47:54.877Z,4.50
2019-05-28T09:51:00.024Z,4.40
2019-05-28T09:54:07.159Z,4.80
2019-05-28T09:57:14.161Z,4.80
2019-05-28T10:00:22.556Z,4.80
2019-05-28T10:03:29.518Z,5.03
2019-05-28T10:06:37.903Z,5.30
2019-05-28T10:09:45.146Z,5.67
2019-05-28T10:12:52.158Z,5.57
2019-05-28T10:15:59.167Z,4.50
2019-05-28T10:19:06.139Z,4.67
2019-05-28T10:22:13.107Z,5.03
2019-05-28T10:25:20.376Z,4.43
2019-05-28T10:28:27.374Z,4.83
2019-05-28T10:31:34.375Z,5.10
2019-05-28T10:34:41.356Z,3.97
2019-05-28T10:37:48.363Z,4.90
2019-05-28T10:40:55.432Z,4.43
2019-05-28T10:44:02.411Z,3.93
2019-05-28T10:47:09.381Z,5.10
2019-05-28T10:50:16.870Z,4.07
2019-05-28T10:53:23.837Z,4.27
2019-05-28T10:56:30.863Z,3.50
2019-05-28T10:59:37.795Z,4.33
2019-05-28T11:02:44.799Z,4.20
2019-05-28T11:05:51.796Z,3.80
2019-05-28T11:08:58.792Z,5.10
2019-05-28T11:12:06.022Z,4.00
2019-05-28T11:15:14.706Z,4.00
2019-05-28T11:18:21.772Z,4.07
2019-05-28T11:21:28.755Z,4.47
2019-05-28T11:24:35.751Z,4.37
2019-05-28T11:27:42.735Z,4.40
2019-05-28T11:30:49.783Z,4.13
2019-05-28T11:33:56.745Z,3.87
2019-05-28T11:37:09.592Z,4.30
2019-05-28T11:40:13.035Z,3.93
2019-05-28T11:43:20.053Z,3.60
2019-05-28T11:46:27.083Z,4.03
2019-05-28T11:49:34.124Z,4.43
2019-05-28T11:52:41.165Z,4.13
2019-05-28T11:55:48.136Z,3.97
2019-05-28T11:58:55.116Z,3.43
2019-05-28T12:02:04.986Z,4.00
2019-05-28T12:05:12.583Z,5.10
2019-05-28T12:08:19.571Z,5.80
2019-05-28T12:11:26.614Z,5.33
2019-05-28T12:14:33.567Z,6.17
2019-05-28T12:17:44.683Z,6.50
2019-05-28T12:20:49.209Z,7.03
2019-05-28T12:23:56.244Z,7.17
2019-05-28T12:27:03.266Z,7.83
2019-05-28T12:30:12.791Z,8.43
2019-05-28T12:33:19.827Z,6.80
2019-05-28T12:36:26.832Z,7.63
2019-05-28T12:39:33.830Z,8.40
2019-05-28T12:42:40.885Z,8.17
2019-05-28T12:45:47.835Z,8.80
2019-05-28T12:48:54.877Z,7.40
2019-05-28T12:52:01.936Z,7.37
2019-05-28T12:55:09.825Z,8.37
2019-05-28T12:58:18.142Z,6.43
2019-05-28T13:01:25.531Z,8.70
2019-05-28T13:04:32.564Z,7.80
2019-05-28T13:07:39.520Z,8.23
2019-05-28T13:10:46.562Z,10.53
2019-05-28T13:13:53.566Z,7.93
2019-05-28T13:17:00.582Z,9.17
2019-05-28T13:20:08.825Z,7.13
2019-05-28T13:23:15.976Z,9.13
2019-05-28T13:26:22.963Z,8.00
2019-05-28T13:29:29.963Z,7.40
2019-05-28T13:32:36.952Z,7.70
2019-05-28T13:35:43.930Z,7.07
2019-05-28T13:38:50.927Z,8.00
2019-05-28T13:41:57.926Z,7.63
2019-05-28T13:45:06.392Z,8.20
2019-05-28T13:48:13.375Z,7.53
2019-05-28T13:51:20.358Z,6.23
2019-05-28T13:54:27.341Z,7.17
2019-05-28T13:57:38.934Z,7.23
2019-05-28T14:00:42.891Z,7.23
2019-05-28T14:03:49.906Z,5.90
2019-05-28T14:06:56.911Z,5.87
2019-05-28T14:10:03.972Z,6.30
2019-05-28T14:13:11.066Z,5.90
2019-05-28T14:16:18.052Z,5.50
2019-05-28T14:19:25.017Z,5.77
2019-05-28T14:22:34.344Z,5.93
2019-05-28T14:25:40.654Z,6.40
2019-05-28T14:28:47.657Z,5.77
2019-05-28T14:31:54.630Z,5.83
2019-05-28T14:35:01.651Z,5.97
2019-05-28T14:38:08.613Z,6.13
2019-05-28T14:41:15.735Z,5.73
2019-05-28T14:44:22.737Z,5.60
2019-05-28T14:47:29.761Z,6.17
2019-05-28T14:50:36.782Z,5.27
2019-05-28T14:53:43.769Z,5.20
2019-05-28T14:56:50.788Z,4.67
2019-05-28T14:59:57.768Z,4.13
2019-05-28T15:03:04.729Z,3.67
2019-05-28T15:06:11.778Z,3.23
2019-05-28T15:09:21.299Z,4.07
2019-05-28T15:12:27.429Z,3.43
2019-05-28T15:15:36.258Z,3.43
2019-05-28T15:18:43.082Z,4.70
2019-05-28T15:21:50.070Z,3.50
2019-05-28T15:24:57.048Z,3.40
2019-05-28T15:28:04.044Z,1.80
2019-05-28T15:31:11.022Z,1.43
2019-05-28T15:34:17.956Z,1.60
2019-05-28T15:37:24.998Z,1.50
2019-05-28T15:40:31.990Z,1.47
2019-05-28T15:43:38.986Z,2.40
2019-05-28T15:46:46.002Z,2.37
2019-05-28T15:49:52.945Z,2.40
2019-05-28T15:52:59.944Z,1.87
2019-05-28T15:56:06.964Z,1.90
2019-05-28T15:59:13.960Z,1.50
2019-05-28T16:02:20.949Z,2.10
2019-05-28T16:05:27.950Z,2.00
2019-05-28T16:08:34.924Z,1.90
2019-05-28T16:11:41.948Z,1.80
2019-05-28T16:14:48.960Z,2.20
2019-05-28T16:17:55.973Z,1.70
2019-05-28T16:21:02.971Z,2.30
2019-05-28T16:24:09.957Z,2.70
2019-05-28T16:27:16.986Z,3.00
2019-05-28T16:30:24.301Z,3.87
2019-05-28T16:33:31.301Z,3.73
2019-05-28T16:36:38.326Z,3.53
2019-05-28T16:39:47.405Z,3.87
2019-05-28T16:42:53.952Z,4.27
2019-05-28T16:46:00.965Z,3.73
2019-05-28T16:49:07.930Z,3.83
2019-05-28T16:52:14.933Z,3.77
2019-05-28T16:55:21.948Z,3.63
2019-05-28T16:58:28.981Z,3.40
2019-05-28T17:01:35.984Z,3.13
2019-05-28T17:04:42.968Z,3.80
2019-05-28T17:07:49.948Z,3.20
2019-05-28T17:10:56.930Z,3.97
2019-05-28T17:14:03.989Z,4.17
2019-05-28T17:17:10.955Z,3.67
2019-05-28T17:20:19.779Z,4.23
2019-05-28T17:23:26.792Z,4.00
2019-05-28T17:26:33.752Z,4.63
2019-05-28T17:29:40.873Z,3.83
2019-05-28T17:32:47.922Z,4.00
2019-05-28T17:35:57.408Z,4.90
2019-05-28T17:39:03.574Z,4.27
2019-05-28T17:42:10.575Z,4.50
2019-05-28T17:45:17.978Z,4.03
2019-05-28T17:48:25.061Z,5.37
2019-05-28T17:51:32.045Z,4.47
2019-05-28T17:54:39.121Z,3.93
2019-05-28T17:57:46.076Z,3.30
2019-05-28T18:00:53.120Z,3.90
2019-05-28T18:04:00.160Z,4.23
2019-05-28T18:07:07.122Z,4.20
2019-05-28T18:10:14.365Z,3.83
2019-05-28T18:13:21.370Z,4.07
2019-05-28T18:16:28.497Z,2.90
2019-05-28T18:19:35.568Z,4.77
2019-05-28T18:22:42.539Z,4.17
2019-05-28T18:25:49.576Z,3.60
2019-05-28T18:28:56.554Z,3.80
2019-05-28T18:32:03.692Z,3.13
2019-05-28T18:35:10.687Z,2.90
2019-05-28T18:38:17.670Z,3.67
2019-05-28T18:41:24.725Z,3.47
2019-05-28T18:44:31.722Z,3.40
2019-05-28T18:47:38.840Z,3.43
2019-05-28T18:50:46.558Z,3.30
2019-05-28T18:53:53.692Z,2.70
2019-05-28T18:57:00.751Z,3.83
2019-05-28T19:00:08.450Z,3.30
2019-05-28T19:03:15.557Z,3.20
2019-05-28T19:06:22.548Z,3.47
2019-05-28T19:09:29.646Z,3.50
2019-05-28T19:12:36.960Z,3.00
2019-05-28T19:15:43.989Z,3.00
2019-05-28T19:18:51.118Z,2.90
2019-05-28T19:21:58.161Z,3.17
2019-05-28T19:25:05.988Z,3.47
2019-05-28T19:28:12.992Z,2.53
2019-05-28T19:31:19.990Z,3.30
2019-05-28T19:34:27.100Z,3.30
2019-05-28T19:37:34.205Z,3.20
2019-05-28T19:40:43.804Z,3.03
2019-05-28T19:43:50.868Z,3.00
2019-05-28T19:46:57.840Z,3.33
2019-05-28T19:50:05.127Z,3.37
2019-05-28T19:53:12.256Z,13.17
2019-05-28T19:56:19.416Z,4.10
2019-05-28T19:59:26.524Z,4.00
2019-05-28T20:02:33.549Z,4.10
2019-05-28T20:05:40.540Z,4.20
2019-05-28T20:08:47.822Z,3.83
2019-05-28T20:12:11.149Z,3.70
2019-05-28T20:15:03.748Z,4.17
2019-05-28T20:18:25.926Z,3.87
2019-05-28T20:21:19.407Z,3.40
2019-05-28T20:24:26.485Z,4.10
2019-05-28T20:27:33.513Z,3.60
2019-05-28T20:30:40.551Z,3.50
2019-05-28T20:33:47.658Z,4.13
2019-05-28T20:36:54.699Z,4.67
2019-05-28T20:40:02.271Z,3.40
2019-05-28T20:43:10.090Z,3.70
2019-05-28T20:46:17.340Z,3.40
2019-05-28T20:49:25.445Z,4.00
2019-05-28T20:52:35.048Z,4.00
2019-05-28T20:55:43.233Z,5.47
2019-05-28T20:58:50.226Z,3.63
2019-05-28T21:01:58.070Z,3.73
2019-05-28T21:05:05.585Z,4.40
2019-05-28T21:08:12.564Z,3.47
2019-05-28T21:11:19.552Z,4.07
2019-05-28T21:14:26.602Z,4.40
2019-05-28T21:17:33.575Z,3.47
2019-05-28T21:20:40.569Z,4.00
2019-05-28T21:23:47.614Z,3.67
2019-05-28T21:26:54.548Z,3.53
2019-05-28T21:30:01.565Z,3.67
2019-05-28T21:33:08.513Z,3.90
2019-05-28T21:36:15.545Z,3.40
2019-05-28T21:39:22.610Z,3.57
2019-05-28T21:42:29.584Z,3.87
2019-05-28T21:45:36.568Z,3.80
2019-05-28T21:48:44.341Z,4.30
2019-05-28T21:51:52.666Z,4.00
2019-05-28T21:54:59.729Z,4.23
2019-05-28T21:58:06.743Z,3.50
2019-05-28T22:01:17.474Z,3.97
2019-05-28T22:04:24.530Z,4.00
2019-05-28T22:07:31.482Z,3.67
2019-05-28T22:10:38.447Z,4.40
2019-05-28T22:13:45.447Z,4.27
2019-05-28T22:16:52.463Z,3.97
2019-05-28T22:20:00.316Z,4.93
2019-05-28T22:23:08.733Z,4.37
2019-05-28T22:26:15.739Z,4.73
2019-05-28T22:29:22.763Z,5.07
2019-05-28T22:32:30.013Z,5.27
2019-05-28T22:35:36.993Z,5.40
2019-05-28T22:38:46.441Z,6.07
2019-05-28T22:41:53.399Z,5.20
2019-05-28T22:45:00.866Z,5.03
2019-05-28T22:48:15.846Z,5.13
2019-05-28T22:51:16.498Z,4.37
2019-05-28T22:54:23.506Z,5.00
2019-05-28T22:57:30.507Z,5.30
2019-05-28T23:00:37.518Z,4.90
2019-05-28T23:03:44.497Z,6.57
2019-05-28T23:06:51.461Z,4.23
2019-05-28T23:09:59.527Z,4.33
2019-05-28T23:13:07.044Z,5.03
2019-05-28T23:16:14.125Z,4.87
2019-05-28T23:19:21.139Z,5.40
2019-05-28T23:22:28.128Z,5.17
2019-05-28T23:25:35.198Z,5.00
2019-05-28T23:28:42.212Z,5.17
2019-05-28T23:31:49.198Z,5.30
2019-05-28T23:34:56.448Z,4.90
2019-05-28T23:38:03.458Z,5.43
2019-05-28T23:41:11.317Z,5.10
2019-05-28T23:44:18.384Z,5.37
2019-05-28T23:47:25.374Z,4.57
2019-05-28T23:50:32.343Z,4.93
2019-05-28T23:53:39.339Z,4.53
2019-05-28T23:56:46.311Z,5.40
2019-05-28T23:59:53.325Z,5.23
